createdAt,value
2024-03-31T00:00:01.233Z,100220
2024-03-31T00:01:02.428Z,100220
2024-03-31T00:02:00.369Z,100220
2024-03-31T00:03:00.302Z,100220
2024-03-31T00:04:00.306Z,100220
2024-03-31T00:05:00.326Z,100220
2024-03-31T00:06:00.302Z,100220
2024-03-31T00:07:02.776Z,100220
2024-03-31T00:08:00.303Z,100220
2024-03-31T00:09:00.312Z,100220
2024-03-31T00:10:00.671Z,100220
2024-03-31T00:11:00.826Z,100220
2024-03-31T00:12:00.302Z,100210
2024-03-31T00:13:00.334Z,100210
2024-03-31T00:14:00.294Z,100210
2024-03-31T00:15:00.405Z,100210
2024-03-31T00:16:00.366Z,100210
2024-03-31T00:17:00.366Z,100210
2024-03-31T00:18:00.294Z,100200
2024-03-31T00:19:00.297Z,100200
2024-03-31T00:20:00.402Z,100200
2024-03-31T00:21:00.298Z,100200
2024-03-31T00:22:00.350Z,100190
2024-03-31T00:23:00.304Z,100190
2024-03-31T00:24:00.291Z,100190
2024-03-31T00:25:00.357Z,100190
2024-03-31T00:26:00.498Z,100200
2024-03-31T00:27:00.359Z,100200
2024-03-31T00:28:00.307Z,100210
2024-03-31T00:29:00.370Z,100210
2024-03-31T00:30:00.277Z,100210
2024-03-31T00:31:00.294Z,100210
2024-03-31T00:32:00.299Z,100210
2024-03-31T00:33:00.380Z,100210
2024-03-31T00:34:00.312Z,100210
2024-03-31T00:35:00.314Z,100210
2024-03-31T00:36:00.293Z,100220
2024-03-31T00:37:00.297Z,100220
2024-03-31T00:38:00.395Z,100210
2024-03-31T00:39:00.311Z,100210
2024-03-31T00:40:00.358Z,100210
2024-03-31T00:41:00.298Z,100210
2024-03-31T00:42:00.295Z,100210
2024-03-31T00:43:00.330Z,100210
2024-03-31T00:44:00.317Z,100210
2024-03-31T00:45:00.292Z,100210
2024-03-31T00:46:00.291Z,100200
2024-03-31T00:47:00.310Z,100200
2024-03-31T00:48:00.295Z,100200
2024-03-31T00:49:00.428Z,100200
2024-03-31T00:50:00.275Z,100200
2024-03-31T00:51:00.305Z,100200
2024-03-31T00:52:00.295Z,100190
2024-03-31T00:53:00.322Z,100190
2024-03-31T00:54:00.478Z,100190
2024-03-31T00:55:00.302Z,100190
2024-03-31T00:56:00.312Z,100180
2024-03-31T00:57:00.303Z,100180
2024-03-31T00:58:00.286Z,100190
2024-03-31T00:59:00.566Z,100190
2024-03-31T01:00:01.268Z,100190
2024-03-31T01:01:00.316Z,100190
2024-03-31T01:02:00.328Z,100190
2024-03-31T01:03:00.359Z,100190
2024-03-31T01:04:00.360Z,100200
2024-03-31T01:05:00.362Z,100200
2024-03-31T01:06:06.432Z,100200
2024-03-31T01:07:00.355Z,100200
2024-03-31T01:08:00.546Z,100200
2024-03-31T01:09:00.397Z,100200
2024-03-31T01:10:00.474Z,100200
2024-03-31T01:11:00.369Z,100200
2024-03-31T01:12:00.302Z,100210
2024-03-31T01:13:00.329Z,100210
2024-03-31T01:14:01.714Z,100210
2024-03-31T01:15:00.332Z,100210
2024-03-31T01:16:00.299Z,100210
2024-03-31T01:17:00.357Z,100210
2024-03-31T01:18:00.301Z,100210
2024-03-31T01:19:00.284Z,100210
2024-03-31T01:20:00.555Z,100210
2024-03-31T01:21:01.308Z,100210
2024-03-31T01:22:00.300Z,100210
2024-03-31T01:23:02.385Z,100210
2024-03-31T01:24:00.339Z,100200
2024-03-31T01:25:00.421Z,100200
2024-03-31T01:26:00.838Z,100200
2024-03-31T01:27:00.308Z,100200
2024-03-31T01:28:00.306Z,100200
2024-03-31T01:29:00.300Z,100200
2024-03-31T01:30:00.326Z,100200
2024-03-31T01:31:00.440Z,100200
2024-03-31T01:32:00.296Z,100190
2024-03-31T01:33:00.413Z,100190
2024-03-31T01:34:00.403Z,100190
2024-03-31T01:35:00.311Z,100190
2024-03-31T01:36:00.538Z,100190
2024-03-31T01:37:00.369Z,100190
2024-03-31T01:38:00.307Z,100190
2024-03-31T01:39:05.538Z,100190
2024-03-31T01:40:00.296Z,100200
2024-03-31T01:41:00.332Z,100200
2024-03-31T01:42:00.338Z,100200
2024-03-31T01:43:00.304Z,100200
2024-03-31T01:44:00.303Z,100200
2024-03-31T01:45:00.279Z,100200
2024-03-31T01:46:00.314Z,100210
2024-03-31T01:47:00.308Z,100210
2024-03-31T01:48:00.315Z,100210
2024-03-31T01:49:00.300Z,100210
2024-03-31T01:50:00.293Z,100210
2024-03-31T01:51:00.300Z,100210
2024-03-31T01:52:00.298Z,100210
2024-03-31T01:53:00.377Z,100210
2024-03-31T01:54:00.539Z,100210
2024-03-31T01:55:00.324Z,100210
2024-03-31T01:56:00.326Z,100210
2024-03-31T01:57:00.343Z,100210
2024-03-31T01:58:00.357Z,100220
2024-03-31T01:59:01.098Z,100220
2024-03-31T02:00:00.303Z,100220
2024-03-31T02:01:00.366Z,100220
2024-03-31T02:02:00.302Z,100220
2024-03-31T02:03:00.987Z,100220
2024-03-31T02:04:00.296Z,100210
2024-03-31T02:05:00.318Z,100210
2024-03-31T02:06:06.577Z,100200
2024-03-31T02:07:00.326Z,100200
2024-03-31T02:08:00.320Z,100200
2024-03-31T02:09:00.322Z,100200
2024-03-31T02:10:00.315Z,100190
2024-03-31T02:11:00.305Z,100190
2024-03-31T02:12:00.316Z,100200
2024-03-31T02:13:00.288Z,100200
2024-03-31T02:14:00.333Z,100200
2024-03-31T02:15:00.376Z,100200
2024-03-31T02:16:00.277Z,100190
2024-03-31T02:17:00.293Z,100190
2024-03-31T02:18:00.285Z,100200
2024-03-31T02:19:00.307Z,100200
2024-03-31T02:20:00.300Z,100200
2024-03-31T02:21:01.433Z,100200
2024-03-31T02:22:00.306Z,100200
2024-03-31T02:23:00.276Z,100200
2024-03-31T02:24:00.289Z,100200
2024-03-31T02:25:00.419Z,100200
2024-03-31T02:26:00.687Z,100200
2024-03-31T02:27:00.471Z,100200
2024-03-31T02:28:00.302Z,100190
2024-03-31T02:29:00.372Z,100190
2024-03-31T02:30:00.315Z,100190
2024-03-31T02:31:00.387Z,100190
2024-03-31T02:32:00.438Z,100200
2024-03-31T02:33:00.322Z,100200
2024-03-31T02:34:00.309Z,100210
2024-03-31T02:35:00.294Z,100210
2024-03-31T02:36:00.325Z,100220
2024-03-31T02:37:00.322Z,100220
2024-03-31T02:38:00.357Z,100220
2024-03-31T02:39:00.288Z,100220
2024-03-31T02:40:00.318Z,100220
2024-03-31T02:41:00.313Z,100220
2024-03-31T02:42:00.306Z,100220
2024-03-31T02:43:00.369Z,100220
2024-03-31T02:44:00.294Z,100230
2024-03-31T02:45:00.356Z,100230
2024-03-31T02:46:00.297Z,100230
2024-03-31T02:47:00.283Z,100230
2024-03-31T02:48:00.297Z,100230
2024-03-31T02:49:00.309Z,100230
2024-03-31T02:50:00.311Z,100220
2024-03-31T02:51:00.294Z,100220
2024-03-31T02:52:00.296Z,100230
2024-03-31T02:53:00.300Z,100230
2024-03-31T02:54:00.323Z,100240
2024-03-31T02:55:00.300Z,100240
2024-03-31T02:56:00.304Z,100240
2024-03-31T02:57:00.304Z,100240
2024-03-31T02:58:00.341Z,100230
2024-03-31T02:59:00.295Z,100230
2024-03-31T03:00:00.331Z,100240
2024-03-31T03:01:03.008Z,100240
2024-03-31T03:02:00.332Z,100230
2024-03-31T03:03:00.360Z,100230
2024-03-31T03:04:00.306Z,100230
2024-03-31T03:05:00.324Z,100230
2024-03-31T03:06:00.322Z,100230
2024-03-31T03:07:00.327Z,100230
2024-03-31T03:08:00.305Z,100240
2024-03-31T03:09:00.345Z,100240
2024-03-31T03:10:00.293Z,100250
2024-03-31T03:11:00.300Z,100250
2024-03-31T03:12:00.294Z,100260
2024-03-31T03:13:00.336Z,100260
2024-03-31T03:14:00.313Z,100260
2024-03-31T03:15:00.369Z,100260
2024-03-31T03:16:01.695Z,100250
2024-03-31T03:17:00.294Z,100250
2024-03-31T03:18:00.294Z,100240
2024-03-31T03:19:00.358Z,100240
2024-03-31T03:20:00.289Z,100240
2024-03-31T03:21:00.302Z,100240
2024-03-31T03:22:00.304Z,100240
2024-03-31T03:23:00.306Z,100240
2024-03-31T03:24:00.472Z,100230
2024-03-31T03:25:00.399Z,100230
2024-03-31T03:26:00.332Z,100230
2024-03-31T03:27:00.323Z,100230
2024-03-31T03:28:00.381Z,100230
2024-03-31T03:29:00.428Z,100230
2024-03-31T03:30:00.291Z,100230
2024-03-31T03:31:00.794Z,100230
2024-03-31T03:32:00.283Z,100240
2024-03-31T03:33:00.354Z,100240
2024-03-31T03:34:00.306Z,100240
2024-03-31T03:35:00.319Z,100240
2024-03-31T03:36:02.983Z,100250
2024-03-31T03:37:00.307Z,100250
2024-03-31T03:38:00.301Z,100250
2024-03-31T03:39:00.303Z,100250
2024-03-31T03:40:00.304Z,100270
2024-03-31T03:41:00.297Z,100270
2024-03-31T03:42:00.298Z,100270
2024-03-31T03:43:00.291Z,100270
2024-03-31T03:44:00.354Z,100270
2024-03-31T03:45:00.323Z,100270
2024-03-31T03:46:00.721Z,100270
2024-03-31T03:47:00.302Z,100270
2024-03-31T03:48:00.288Z,100280
2024-03-31T03:49:00.312Z,100280
2024-03-31T03:50:00.297Z,100280
2024-03-31T03:51:00.819Z,100280
2024-03-31T03:52:00.316Z,100280
2024-03-31T03:53:00.280Z,100280
2024-03-31T03:54:00.295Z,100280
2024-03-31T03:55:00.279Z,100280
2024-03-31T03:56:00.310Z,100280
2024-03-31T03:57:00.411Z,100280
2024-03-31T03:58:00.327Z,100280
2024-03-31T03:59:00.317Z,100280
2024-03-31T04:00:00.295Z,100280
2024-03-31T04:01:00.318Z,100280
2024-03-31T04:02:00.300Z,100280
2024-03-31T04:03:00.301Z,100280
2024-03-31T04:04:00.294Z,100270
2024-03-31T04:05:00.266Z,100270
2024-03-31T04:06:00.363Z,100270
2024-03-31T04:07:00.299Z,100270
2024-03-31T04:08:00.369Z,100260
2024-03-31T04:09:00.301Z,100260
2024-03-31T04:10:00.297Z,100250
2024-03-31T04:11:00.307Z,100250
2024-03-31T04:12:00.290Z,100250
2024-03-31T04:13:00.399Z,100250
2024-03-31T04:14:00.340Z,100260
2024-03-31T04:15:00.906Z,100260
2024-03-31T04:16:00.658Z,100270
2024-03-31T04:17:00.437Z,100270
2024-03-31T04:18:00.368Z,100270
2024-03-31T04:19:00.311Z,100270
2024-03-31T04:20:00.575Z,100270
2024-03-31T04:21:00.299Z,100270
2024-03-31T04:22:00.308Z,100270
2024-03-31T04:23:00.302Z,100270
2024-03-31T04:24:00.338Z,100270
2024-03-31T04:25:00.361Z,100270
2024-03-31T04:26:00.326Z,100280
2024-03-31T04:27:00.304Z,100280
2024-03-31T04:28:00.510Z,100270
2024-03-31T04:29:00.294Z,100270
2024-03-31T04:30:00.302Z,100270
2024-03-31T04:31:02.021Z,100270
2024-03-31T04:32:00.303Z,100270
2024-03-31T04:33:00.295Z,100270
2024-03-31T04:34:00.335Z,100270
2024-03-31T04:35:00.289Z,100270
2024-03-31T04:36:00.363Z,100280
2024-03-31T04:37:00.704Z,100280
2024-03-31T04:38:00.326Z,100280
2024-03-31T04:39:00.293Z,100280
2024-03-31T04:40:00.299Z,100280
2024-03-31T04:41:00.300Z,100280
2024-03-31T04:42:00.342Z,100270
2024-03-31T04:43:00.420Z,100270
2024-03-31T04:44:00.337Z,100260
2024-03-31T04:45:00.381Z,100260
2024-03-31T04:46:02.537Z,100260
2024-03-31T04:47:00.366Z,100260
2024-03-31T04:48:00.917Z,100260
2024-03-31T04:49:00.293Z,100260
2024-03-31T04:50:00.316Z,100240
2024-03-31T04:51:01.978Z,100240
2024-03-31T04:52:00.417Z,100240
2024-03-31T04:53:00.315Z,100240
2024-03-31T04:54:02.054Z,100230
2024-03-31T04:55:00.305Z,100230
2024-03-31T04:56:00.775Z,100230
2024-03-31T04:57:00.330Z,100230
2024-03-31T04:58:00.325Z,100230
2024-03-31T04:59:00.296Z,100230
2024-03-31T05:00:00.298Z,100210
2024-03-31T05:01:00.301Z,100210
2024-03-31T05:02:00.304Z,100210
2024-03-31T05:03:00.335Z,100210
2024-03-31T05:04:00.362Z,100200
2024-03-31T05:05:00.344Z,100200
2024-03-31T05:06:00.317Z,100200
2024-03-31T05:07:00.297Z,100200
2024-03-31T05:08:00.294Z,100180
2024-03-31T05:09:00.351Z,100180
2024-03-31T05:10:00.327Z,100180
2024-03-31T05:11:00.598Z,100180
2024-03-31T05:12:00.316Z,100180
2024-03-31T05:13:00.298Z,100180
2024-03-31T05:14:00.561Z,100180
2024-03-31T05:15:00.298Z,100180
2024-03-31T05:16:01.124Z,100190
2024-03-31T05:17:00.442Z,100190
2024-03-31T05:18:00.306Z,100190
2024-03-31T05:19:00.297Z,100190
2024-03-31T05:20:00.372Z,100190
2024-03-31T05:21:02.738Z,100190
2024-03-31T05:22:00.302Z,100190
2024-03-31T05:23:00.341Z,100190
2024-03-31T05:24:00.314Z,100180
2024-03-31T05:25:00.285Z,100180
2024-03-31T05:26:00.337Z,100180
2024-03-31T05:27:00.270Z,100180
2024-03-31T05:28:00.317Z,100180
2024-03-31T05:29:00.315Z,100180
2024-03-31T05:30:00.314Z,100190
2024-03-31T05:31:00.322Z,100190
2024-03-31T05:32:00.293Z,100190
2024-03-31T05:33:00.376Z,100190
2024-03-31T05:34:00.333Z,100200
2024-03-31T05:35:00.304Z,100200
2024-03-31T05:36:00.436Z,100200
2024-03-31T05:37:00.293Z,100200
2024-03-31T05:38:00.312Z,100200
2024-03-31T05:39:00.431Z,100200
2024-03-31T05:40:00.332Z,100200
2024-03-31T05:41:00.449Z,100200
2024-03-31T05:42:00.295Z,100200
2024-03-31T05:43:00.297Z,100200
2024-03-31T05:44:00.307Z,100210
2024-03-31T05:45:00.364Z,100210
2024-03-31T05:46:00.284Z,100210
2024-03-31T05:47:00.296Z,100210
2024-03-31T05:48:00.836Z,100220
2024-03-31T05:49:00.488Z,100220
2024-03-31T05:50:00.317Z,100230
2024-03-31T05:51:00.451Z,100230
2024-03-31T05:52:00.349Z,100230
2024-03-31T05:53:00.467Z,100230
2024-03-31T05:54:00.324Z,100230
2024-03-31T05:55:00.303Z,100230
2024-03-31T05:56:00.292Z,100220
2024-03-31T05:57:00.314Z,100220
2024-03-31T05:58:00.408Z,100210
2024-03-31T05:59:00.304Z,100210
2024-03-31T06:00:00.299Z,100210
2024-03-31T06:01:00.309Z,100210
2024-03-31T06:02:00.332Z,100200
2024-03-31T06:03:00.319Z,100200
2024-03-31T06:04:00.297Z,100200
2024-03-31T06:05:00.317Z,100200
2024-03-31T06:06:00.299Z,100190
2024-03-31T06:07:00.304Z,100190
2024-03-31T06:08:00.329Z,100180
2024-03-31T06:09:00.366Z,100180
2024-03-31T06:10:00.297Z,100170
2024-03-31T06:11:01.495Z,100170
2024-03-31T06:12:00.301Z,100170
2024-03-31T06:13:00.405Z,100170
2024-03-31T06:14:00.301Z,100170
2024-03-31T06:15:00.299Z,100170
2024-03-31T06:16:00.292Z,100170
2024-03-31T06:17:00.301Z,100170
2024-03-31T06:18:00.312Z,100170
2024-03-31T06:19:00.370Z,100170
2024-03-31T06:20:00.442Z,100170
2024-03-31T06:21:04.825Z,100170
2024-03-31T06:22:00.295Z,100180
2024-03-31T06:23:00.300Z,100180
2024-03-31T06:24:00.338Z,100180
2024-03-31T06:25:00.301Z,100180
2024-03-31T06:26:00.629Z,100180
2024-03-31T06:27:00.288Z,100180
2024-03-31T06:28:00.294Z,100180
2024-03-31T06:29:00.380Z,100180
2024-03-31T06:30:01.070Z,100170
2024-03-31T06:31:00.319Z,100170
2024-03-31T06:32:00.315Z,100170
2024-03-31T06:33:00.303Z,100170
2024-03-31T06:34:00.287Z,100170
2024-03-31T06:35:00.409Z,100170
2024-03-31T06:36:00.347Z,100180
2024-03-31T06:37:00.317Z,100180
2024-03-31T06:38:00.302Z,100190
2024-03-31T06:39:00.322Z,100190
2024-03-31T06:40:00.315Z,100210
2024-03-31T06:41:00.453Z,100210
2024-03-31T06:42:00.300Z,100210
2024-03-31T06:43:00.347Z,100210
2024-03-31T06:44:00.302Z,100220
2024-03-31T06:45:00.598Z,100220
2024-03-31T06:46:00.344Z,100220
2024-03-31T06:47:00.307Z,100220
2024-03-31T06:48:00.337Z,100200
2024-03-31T06:49:00.308Z,100200
2024-03-31T06:50:00.306Z,100200
2024-03-31T06:51:00.334Z,100200
2024-03-31T06:52:00.303Z,100200
2024-03-31T06:53:00.311Z,100200
2024-03-31T06:54:00.317Z,100200
2024-03-31T06:55:00.292Z,100200
2024-03-31T06:56:00.301Z,100200
2024-03-31T06:57:00.367Z,100200
2024-03-31T06:58:00.370Z,100190
2024-03-31T06:59:00.317Z,100190
2024-03-31T07:00:00.297Z,100200
2024-03-31T07:01:01.291Z,100200
2024-03-31T07:02:00.502Z,100200
2024-03-31T07:03:00.317Z,100200
2024-03-31T07:04:00.296Z,100190
2024-03-31T07:05:00.328Z,100190
2024-03-31T07:06:00.309Z,100190
2024-03-31T07:07:00.302Z,100190
2024-03-31T07:08:00.363Z,100190
2024-03-31T07:09:00.851Z,100190
2024-03-31T07:10:00.298Z,100190
2024-03-31T07:11:00.303Z,100190
2024-03-31T07:12:00.318Z,100180
2024-03-31T07:13:00.301Z,100180
2024-03-31T07:14:00.380Z,100170
2024-03-31T07:15:00.325Z,100170
2024-03-31T07:16:00.299Z,100170
2024-03-31T07:17:00.297Z,100170
2024-03-31T07:18:04.718Z,100160
2024-03-31T07:19:00.424Z,100160
2024-03-31T07:20:00.669Z,100150
2024-03-31T07:21:00.539Z,100150
2024-03-31T07:22:00.292Z,100140
2024-03-31T07:23:01.218Z,100140
2024-03-31T07:24:00.305Z,100140
2024-03-31T07:25:00.372Z,100140
2024-03-31T07:26:00.296Z,100150
2024-03-31T07:27:00.329Z,100150
2024-03-31T07:28:00.425Z,100150
2024-03-31T07:29:00.327Z,100150
2024-03-31T07:30:00.344Z,100160
2024-03-31T07:31:00.329Z,100160
2024-03-31T07:32:00.330Z,100170
2024-03-31T07:33:00.519Z,100170
2024-03-31T07:34:00.312Z,100170
2024-03-31T07:35:00.319Z,100170
2024-03-31T07:36:00.359Z,100190
2024-03-31T07:37:00.346Z,100190
2024-03-31T07:38:00.359Z,100200
2024-03-31T07:39:00.313Z,100200
2024-03-31T07:40:00.312Z,100200
2024-03-31T07:41:00.911Z,100200
2024-03-31T07:42:02.631Z,100190
2024-03-31T07:43:00.371Z,100190
2024-03-31T07:44:00.373Z,100200
2024-03-31T07:45:00.311Z,100200
2024-03-31T07:46:00.292Z,100200
2024-03-31T07:47:00.298Z,100200
2024-03-31T07:48:01.881Z,100200
2024-03-31T07:49:00.440Z,100200
2024-03-31T07:50:00.358Z,100210
2024-03-31T07:51:00.301Z,100210
2024-03-31T07:52:00.297Z,100230
2024-03-31T07:53:00.305Z,100230
2024-03-31T07:54:00.300Z,100230
2024-03-31T07:55:00.305Z,100230
2024-03-31T07:56:00.896Z,100250
2024-03-31T07:57:00.365Z,100250
2024-03-31T07:58:00.323Z,100260
2024-03-31T07:59:00.329Z,100260
2024-03-31T08:00:00.418Z,100250
2024-03-31T08:01:00.442Z,100250
2024-03-31T08:02:00.289Z,100250
2024-03-31T08:03:00.339Z,100250
2024-03-31T08:04:00.301Z,100250
2024-03-31T08:05:00.380Z,100250
2024-03-31T08:06:00.316Z,100250
2024-03-31T08:07:00.300Z,100250
2024-03-31T08:08:00.297Z,100250
2024-03-31T08:09:00.323Z,100250
2024-03-31T08:10:00.364Z,100250
2024-03-31T08:11:00.342Z,100250
2024-03-31T08:12:00.300Z,100250
2024-03-31T08:13:00.319Z,100250
2024-03-31T08:14:00.338Z,100240
2024-03-31T08:15:00.835Z,100240
2024-03-31T08:16:00.302Z,100230
2024-03-31T08:17:00.315Z,100230
2024-03-31T08:18:00.375Z,100220
2024-03-31T08:19:00.308Z,100220
2024-03-31T08:20:00.304Z,100220
2024-03-31T08:21:01.388Z,100220
2024-03-31T08:22:00.779Z,100220
2024-03-31T08:23:00.323Z,100220
2024-03-31T08:24:00.412Z,100220
2024-03-31T08:25:00.350Z,100220
2024-03-31T08:26:00.300Z,100220
2024-03-31T08:27:00.301Z,100220
2024-03-31T08:28:00.299Z,100220
2024-03-31T08:29:00.318Z,100220
2024-03-31T08:30:00.278Z,100220
2024-03-31T08:31:00.306Z,100220
2024-03-31T08:32:00.309Z,100210
2024-03-31T08:33:00.303Z,100210
2024-03-31T08:34:00.310Z,100220
2024-03-31T08:35:00.448Z,100220
2024-03-31T08:36:00.350Z,100220
2024-03-31T08:37:00.323Z,100220
2024-03-31T08:38:00.362Z,100230
2024-03-31T08:39:00.396Z,100230
2024-03-31T08:40:00.325Z,100230
2024-03-31T08:41:04.854Z,100230
2024-03-31T08:42:06.906Z,100220
2024-03-31T08:43:03.949Z,100220
2024-03-31T08:44:02.199Z,100230
2024-03-31T08:45:00.799Z,100230
2024-03-31T08:46:01.272Z,100230
2024-03-31T08:47:01.560Z,100230
2024-03-31T08:48:00.471Z,100230
2024-03-31T08:49:00.311Z,100230
2024-03-31T08:50:00.401Z,100230
2024-03-31T08:51:01.518Z,100230
2024-03-31T08:52:00.770Z,100230
2024-03-31T08:53:00.318Z,100230
2024-03-31T08:54:00.331Z,100240
2024-03-31T08:55:01.722Z,100240
2024-03-31T08:56:00.291Z,100240
2024-03-31T08:57:00.463Z,100240
2024-03-31T08:58:00.315Z,100240
2024-03-31T08:59:00.479Z,100240
2024-03-31T09:00:00.304Z,100240
2024-03-31T09:01:01.430Z,100240
2024-03-31T09:02:00.697Z,100240
2024-03-31T09:03:02.392Z,100240
2024-03-31T09:04:00.686Z,100240
2024-03-31T09:05:00.844Z,100240
2024-03-31T09:06:00.320Z,100240
2024-03-31T09:07:00.314Z,100240
2024-03-31T09:08:00.366Z,100250
2024-03-31T09:09:01.366Z,100250
2024-03-31T09:10:01.971Z,100250
2024-03-31T09:11:01.480Z,100250
2024-03-31T09:12:00.596Z,100260
2024-03-31T09:13:07.164Z,100260
2024-03-31T09:14:00.298Z,100260
2024-03-31T09:15:00.943Z,100260
2024-03-31T09:16:00.492Z,100260
2024-03-31T09:17:00.311Z,100260
2024-03-31T09:18:00.327Z,100270
2024-03-31T09:19:00.520Z,100270
2024-03-31T09:20:01.436Z,100270
2024-03-31T09:21:01.272Z,100270
2024-03-31T09:22:00.493Z,100270
2024-03-31T09:23:00.582Z,100270
2024-03-31T09:24:00.342Z,100270
2024-03-31T09:25:00.342Z,100270
2024-03-31T09:26:00.540Z,100280
2024-03-31T09:27:00.377Z,100280
2024-03-31T09:28:00.330Z,100290
2024-03-31T09:29:00.528Z,100290
2024-03-31T09:30:00.715Z,100290
2024-03-31T09:31:00.308Z,100290
2024-03-31T09:40:02.737Z,100300
2024-03-31T09:41:00.843Z,100300
2024-03-31T09:42:00.570Z,100290
2024-03-31T09:43:01.742Z,100290
2024-03-31T09:44:00.574Z,100290
2024-03-31T09:45:00.805Z,100290
2024-03-31T09:46:00.375Z,100290
2024-03-31T09:47:00.350Z,100290
2024-03-31T09:48:17.778Z,100290
2024-03-31T09:53:01.943Z,100310
2024-03-31T09:54:01.468Z,100310
2024-03-31T09:55:05.791Z,100310
2024-03-31T10:00:01.578Z,100320
2024-03-31T10:09:00.577Z,100310
2024-03-31T10:10:01.489Z,100310
2024-03-31T10:19:00.592Z,100310
2024-03-31T10:20:01.926Z,100310
2024-03-31T10:21:00.699Z,100300
2024-03-31T10:22:00.341Z,100300
2024-03-31T10:23:00.780Z,100300
2024-03-31T10:24:01.009Z,100300
2024-03-31T10:25:00.885Z,100300
2024-03-31T10:26:03.114Z,100300
2024-03-31T10:27:01.034Z,100310
2024-03-31T10:28:01.071Z,100310
2024-03-31T10:29:00.567Z,100310
2024-03-31T10:30:00.614Z,100310
2024-03-31T10:31:02.356Z,100310
2024-03-31T10:32:00.518Z,100300
2024-03-31T10:33:01.277Z,100300
2024-03-31T10:34:00.418Z,100300
2024-03-31T10:35:00.889Z,100300
2024-03-31T10:45:01.383Z,100270
2024-03-31T10:46:00.989Z,100270
2024-03-31T10:47:00.383Z,100260
2024-03-31T10:48:00.849Z,100260
2024-03-31T10:49:00.881Z,100260
2024-03-31T10:53:00.374Z,100250
2024-03-31T10:54:26.417Z,100260
2024-03-31T10:55:00.310Z,100260
2024-03-31T10:56:03.234Z,100260
2024-03-31T10:57:02.416Z,100270
2024-03-31T10:58:00.659Z,100270
2024-03-31T10:59:04.816Z,100270
2024-03-31T11:00:00.851Z,100270
2024-03-31T11:01:02.047Z,100270
2024-03-31T11:02:20.738Z,100260
2024-03-31T11:03:06.478Z,100260
2024-03-31T11:04:15.025Z,100260
2024-03-31T11:06:02.020Z,100260
2024-03-31T11:07:02.948Z,100250
2024-03-31T11:08:00.657Z,100250
2024-03-31T11:09:00.345Z,100250
2024-03-31T11:10:01.082Z,100250
2024-03-31T11:11:01.115Z,100250
2024-03-31T11:12:02.049Z,100250
2024-03-31T11:13:00.369Z,100250
2024-03-31T11:22:02.263Z,100270
2024-03-31T11:25:00.760Z,100260
2024-03-31T11:26:00.569Z,100260
2024-03-31T11:27:01.400Z,100260
2024-03-31T11:29:00.344Z,100260
2024-03-31T11:30:00.737Z,100250
2024-03-31T11:31:01.514Z,100250
2024-03-31T11:32:00.428Z,100250
2024-03-31T11:38:19.857Z,100270
2024-03-31T11:39:00.376Z,100260
2024-03-31T11:40:00.626Z,100260
2024-03-31T11:45:00.438Z,100260
2024-03-31T11:46:00.473Z,100260
2024-03-31T11:48:00.932Z,100260
2024-03-31T11:49:00.647Z,100260
2024-03-31T11:59:00.307Z,100250
2024-03-31T12:00:00.306Z,100250
2024-03-31T12:05:00.671Z,100250
2024-03-31T12:06:01.080Z,100250
2024-03-31T12:07:00.498Z,100250
2024-03-31T12:08:00.733Z,100250
2024-03-31T12:09:00.386Z,100250
2024-03-31T12:18:00.415Z,100240
2024-03-31T12:19:00.389Z,100240
2024-03-31T12:20:04.060Z,100250
2024-03-31T12:21:00.516Z,100250
2024-03-31T12:22:00.352Z,100250
2024-03-31T12:23:01.085Z,100250
2024-03-31T12:24:00.833Z,100250
2024-03-31T12:25:00.679Z,100250
2024-03-31T12:26:00.606Z,100250
2024-03-31T12:27:00.945Z,100250
2024-03-31T12:28:00.560Z,100250
2024-03-31T12:29:00.297Z,100250
2024-03-31T12:30:00.872Z,100250
2024-03-31T12:31:00.477Z,100250
2024-03-31T12:32:00.337Z,100250
2024-03-31T12:33:00.330Z,100250
2024-03-31T12:34:00.460Z,100250
2024-03-31T12:35:00.389Z,100250
2024-03-31T12:36:03.748Z,100250
2024-03-31T12:37:00.557Z,100250
2024-03-31T12:38:00.405Z,100250
2024-03-31T12:39:00.355Z,100250
2024-03-31T12:40:00.359Z,100250
2024-03-31T12:41:00.689Z,100250
2024-03-31T12:42:00.425Z,100250
2024-03-31T12:43:00.394Z,100250
2024-03-31T12:44:03.945Z,100250
2024-03-31T12:45:00.289Z,100250
2024-03-31T12:46:06.043Z,100250
2024-03-31T12:47:00.417Z,100250
2024-03-31T12:48:01.636Z,100240
2024-03-31T12:49:03.313Z,100240
2024-03-31T12:50:00.312Z,100240
2024-03-31T12:51:00.354Z,100240
2024-03-31T12:52:04.031Z,100240
2024-03-31T12:53:04.911Z,100240
2024-03-31T12:54:00.515Z,100240
2024-03-31T12:55:07.778Z,100240
2024-03-31T12:56:00.402Z,100240
2024-03-31T12:57:00.582Z,100240
2024-03-31T12:58:00.316Z,100230
2024-03-31T12:59:01.321Z,100230
2024-03-31T13:00:01.897Z,100230
2024-03-31T13:01:00.348Z,100230
2024-03-31T13:02:00.371Z,100230
2024-03-31T13:03:00.363Z,100230
2024-03-31T13:04:00.322Z,100230
2024-03-31T13:05:01.257Z,100230
2024-03-31T13:06:02.783Z,100230
2024-03-31T13:07:00.318Z,100230
2024-03-31T13:08:00.353Z,100250
2024-03-31T13:09:00.322Z,100250
2024-03-31T13:10:01.041Z,100250
2024-03-31T13:11:00.659Z,100250
2024-03-31T13:12:00.710Z,100260
2024-03-31T13:13:01.901Z,100260
2024-03-31T13:14:00.573Z,100250
2024-03-31T13:15:01.019Z,100250
2024-03-31T13:16:00.360Z,100250
2024-03-31T13:17:00.321Z,100250
2024-03-31T13:18:00.294Z,100250
2024-03-31T13:19:00.304Z,100250
2024-03-31T13:20:00.302Z,100250
2024-03-31T13:21:00.577Z,100250
2024-03-31T13:22:00.360Z,100250
2024-03-31T13:23:00.329Z,100250
2024-03-31T13:24:00.288Z,100250
2024-03-31T13:25:00.358Z,100250
2024-03-31T13:26:00.396Z,100250
2024-03-31T13:27:00.315Z,100250
2024-03-31T13:28:00.371Z,100250
2024-03-31T13:29:00.293Z,100250
2024-03-31T13:30:00.318Z,100250
2024-03-31T13:31:00.305Z,100250
2024-03-31T13:32:00.329Z,100250
2024-03-31T13:33:00.316Z,100250
2024-03-31T13:34:00.317Z,100250
2024-03-31T13:35:00.381Z,100250
2024-03-31T13:36:00.413Z,100250
2024-03-31T13:37:00.478Z,100250
2024-03-31T13:38:00.325Z,100230
2024-03-31T13:39:00.307Z,100230
2024-03-31T13:40:00.302Z,100230
2024-03-31T13:41:01.426Z,100230
2024-03-31T13:42:00.331Z,100230
2024-03-31T13:43:00.351Z,100230
2024-03-31T13:44:00.412Z,100240
2024-03-31T13:45:00.313Z,100240
2024-03-31T13:46:00.290Z,100240
2024-03-31T13:47:00.300Z,100240
2024-03-31T13:48:00.395Z,100220
2024-03-31T13:49:00.324Z,100220
2024-03-31T13:50:00.327Z,100220
2024-03-31T13:51:00.315Z,100220
2024-03-31T13:52:00.306Z,100220
2024-03-31T13:53:00.353Z,100220
2024-03-31T13:54:00.316Z,100210
2024-03-31T13:55:00.314Z,100210